Time;durP1;ratioP1;P1;durP2;ratioP2;P2;SDS_P1;SDS_P2;PMS_P1;PMS_P2;Temp;Humidity;BMP_temperature;BMP_pressure;BME280_temperature;BME280_humidity;BME280_pressure;Samples;Min_cycle;Max_cycle;Signal;HPM_P1;HPM_P2
2023/07/18 00:00:40;;;;;;;11.50;3.47;;;;;;;;;;5056996;28;20127;-76
2023/07/18 00:03:07;;;;;;;11.25;3.63;;;;;;;;;;5054029;28;20414;-77
2023/07/18 00:05:37;;;;;;;9.82;3.55;;;;;;;;;;5053617;28;20041;-77
2023/07/18 00:08:04;;;;;;;10.40;3.80;;;;;;;;;;5034061;28;20040;-77
2023/07/18 00:10:30;;;;;;;11.00;3.95;;;;;;;;;;5051990;28;20064;-76
2023/07/18 00:12:57;;;;;;;8.27;3.17;;;;;;;;;;5053556;28;20047;-76
2023/07/18 00:15:24;;;;;;;11.52;3.33;;;;;;;;;;5053438;28;20041;-76
2023/07/18 00:17:50;;;;;;;10.43;3.85;;;;;;;;;;5054476;28;20509;-77
2023/07/18 00:20:17;;;;;;;10.30;4.05;;;;;;;;;;5056916;28;20047;-77
2023/07/18 00:22:48;;;;;;;8.80;4.00;;;;;;;;;;5056363;28;20067;-77
2023/07/18 00:25:16;;;;;;;12.68;4.07;;;;;;;;;;5056659;28;20100;-77
2023/07/18 00:27:43;;;;;;;11.80;4.32;;;;;;;;;;5056809;28;20045;-77
2023/07/18 00:30:12;;;;;;;12.93;4.18;;;;;;;;;;5056914;28;20037;-77
2023/07/18 00:32:38;;;;;;;11.13;4.20;;;;;;;;;;5056749;28;20052;-77
2023/07/18 00:35:04;;;;;;;11.23;4.53;;;;;;;;;;5056549;28;20506;-77
2023/07/18 00:37:31;;;;;;;11.60;4.65;;;;;;;;;;5053905;28;20048;-77
2023/07/18 00:39:57;;;;;;;13.60;4.70;;;;;;;;;;5041814;28;20407;-76
2023/07/18 00:42:23;;;;;;;13.75;5.07;;;;;;;;;;5056760;28;20037;-77
2023/07/18 00:44:50;;;;;;;9.85;4.13;;;;;;;;;;5055544;28;20053;-77
2023/07/18 00:47:16;;;;;;;13.75;4.93;;;;;;;;;;5056724;28;20083;-77
2023/07/18 00:49:43;;;;;;;14.63;4.95;;;;;;;;;;5056612;28;20051;-77
2023/07/18 00:52:10;;;;;;;13.98;4.80;;;;;;;;;;5056449;28;20037;-77
2023/07/18 00:54:37;;;;;;;13.90;4.60;;;;;;;;;;5056323;28;20403;-77
2023/07/18 00:57:03;;;;;;;12.15;4.53;;;;;;;;;;5056373;28;20037;-77
2023/07/18 00:59:30;;;;;;;10.32;4.80;;;;;;;;;;5038090;28;20041;-77
2023/07/18 01:01:56;;;;;;;13.50;4.90;;;;;;;;;;5036759;28;20089;-77
2023/07/18 01:04:23;;;;;;;12.85;5.07;;;;;;;;;;5036070;28;20042;-77
2023/07/18 01:06:49;;;;;;;14.75;5.15;;;;;;;;;;5035969;28;20046;-77
2023/07/18 01:09:15;;;;;;;14.02;4.85;;;;;;;;;;5051244;28;20399;-77
2023/07/18 01:11:41;;;;;;;13.20;4.45;;;;;;;;;;5055893;28;20044;-77
2023/07/18 01:14:09;;;;;;;10.68;4.75;;;;;;;;;;5052959;28;20049;-77
2023/07/18 01:16:35;;;;;;;12.90;4.70;;;;;;;;;;5036016;28;20061;-78
2023/07/18 01:19:01;;;;;;;10.18;4.40;;;;;;;;;;5052946;28;20421;-77
2023/07/18 01:21:29;;;;;;;11.70;4.72;;;;;;;;;;5055675;28;20045;-77
2023/07/18 01:23:55;;;;;;;12.60;4.75;;;;;;;;;;5055878;28;20044;-77
2023/07/18 01:26:21;;;;;;;12.13;5.05;;;;;;;;;;5056023;28;20060;-76
2023/07/18 01:28:47;;;;;;;12.45;5.28;;;;;;;;;;5053205;28;20127;-77
2023/07/18 01:31:13;;;;;;;13.65;5.53;;;;;;;;;;5055735;28;20494;-77
2023/07/18 01:33:42;;;;;;;12.95;4.93;;;;;;;;;;5038073;28;20084;-77
2023/07/18 01:36:08;;;;;;;10.90;4.65;;;;;;;;;;5054502;28;20479;-77
2023/07/18 01:38:34;;;;;;;13.43;5.28;;;;;;;;;;5042429;28;20379;-77
2023/07/18 01:41:01;;;;;;;11.07;4.68;;;;;;;;;;5037286;28;20124;-77
2023/07/18 01:43:27;;;;;;;13.07;4.97;;;;;;;;;;5053377;28;20041;-77
2023/07/18 01:45:58;;;;;;;10.93;5.03;;;;;;;;;;5054757;28;20048;-77
2023/07/18 01:48:24;;;;;;;12.50;5.15;;;;;;;;;;5055081;28;20080;-77
2023/07/18 01:50:50;;;;;;;11.93;5.20;;;;;;;;;;5054825;28;20053;-77
2023/07/18 01:53:17;;;;;;;11.57;4.95;;;;;;;;;;5054665;28;20071;-77
2023/07/18 01:55:43;;;;;;;12.02;5.30;;;;;;;;;;5055039;28;20041;-77
2023/07/18 01:58:09;;;;;;;12.48;5.63;;;;;;;;;;5054490;28;20041;-76
2023/07/18 02:00:35;;;;;;;11.35;4.97;;;;;;;;;;5054944;28;20041;-76
2023/07/18 02:03:01;;;;;;;14.32;4.65;;;;;;;;;;5054979;28;20444;-76
2023/07/18 02:05:28;;;;;;;11.70;4.78;;;;;;;;;;5057989;28;20087;-76
2023/07/18 02:07:55;;;;;;;10.75;4.60;;;;;;;;;;5057965;28;20406;-76
2023/07/18 02:10:22;;;;;;;12.73;5.18;;;;;;;;;;5039252;28;20505;-77
2023/07/18 02:12:49;;;;;;;11.65;4.78;;;;;;;;;;5043571;28;20045;-77
2023/07/18 02:15:15;;;;;;;12.82;4.88;;;;;;;;;;5034709;28;20072;-77
2023/07/18 02:17:42;;;;;;;13.90;5.63;;;;;;;;;;5052885;28;20129;-76
2023/07/18 02:20:11;;;;;;;10.90;5.15;;;;;;;;;;5054901;28;20049;-76
2023/07/18 02:22:38;;;;;;;15.10;5.13;;;;;;;;;;5054550;28;20411;-76
2023/07/18 02:25:04;;;;;;;12.32;5.60;;;;;;;;;;5054500;28;20434;-77
2023/07/18 02:27:34;;;;;;;9.55;5.40;;;;;;;;;;5043444;28;20480;-77
2023/07/18 02:30:05;;;;;;;14.15;4.55;;;;;;;;;;5034038;28;20407;-76
2023/07/18 02:32:31;;;;;;;10.05;4.50;;;;;;;;;;5034732;28;20043;-77
2023/07/18 02:34:58;;;;;;;14.02;5.68;;;;;;;;;;5034456;28;20046;-77
2023/07/18 02:37:25;;;;;;;13.60;4.90;;;;;;;;;;5034274;28;20041;-77
2023/07/18 02:39:51;;;;;;;11.20;4.90;;;;;;;;;;5051767;28;20045;-77
2023/07/18 02:42:17;;;;;;;12.20;5.13;;;;;;;;;;5053105;28;20045;-77
2023/07/18 02:44:44;;;;;;;11.70;5.05;;;;;;;;;;5054326;28;20457;-77
2023/07/18 02:47:11;;;;;;;11.70;5.00;;;;;;;;;;5054591;28;20055;-77
2023/07/18 02:49:37;;;;;;;11.15;4.75;;;;;;;;;;5053748;28;20491;-76
2023/07/18 02:52:03;;;;;;;13.45;5.30;;;;;;;;;;5053151;28;20048;-76
2023/07/18 02:54:29;;;;;;;12.73;5.50;;;;;;;;;;5054299;28;20411;-77
2023/07/18 02:56:56;;;;;;;13.75;5.25;;;;;;;;;;5053956;28;20041;-76
2023/07/18 02:59:24;;;;;;;11.98;5.07;;;;;;;;;;5053583;28;20053;-76
2023/07/18 03:01:54;;;;;;;11.73;4.78;;;;;;;;;;5054022;28;20041;-76
2023/07/18 03:04:20;;;;;;;11.80;5.20;;;;;;;;;;5035953;28;20076;-76
2023/07/18 03:06:47;;;;;;;13.20;5.07;;;;;;;;;;5034077;28;20055;-76
2023/07/18 03:09:17;;;;;;;15.52;5.68;;;;;;;;;;5046776;28;20163;-77
2023/07/18 03:11:43;;;;;;;16.48;5.32;;;;;;;;;;5053713;28;20044;-77
2023/07/18 03:14:11;;;;;;;14.05;5.78;;;;;;;;;;5053977;28;20041;-78
2023/07/18 03:16:38;;;;;;;14.75;5.63;;;;;;;;;;5053893;28;20045;-77
2023/07/18 03:19:04;;;;;;;12.40;5.72;;;;;;;;;;5044284;28;20049;-78
2023/07/18 03:21:31;;;;;;;12.75;5.80;;;;;;;;;;5036191;28;20041;-77
2023/07/18 03:23:57;;;;;;;13.65;5.53;;;;;;;;;;5052958;28;20453;-76
2023/07/18 03:26:23;;;;;;;13.85;5.28;;;;;;;;;;5049401;28;20537;-77
2023/07/18 03:28:49;;;;;;;17.25;6.03;;;;;;;;;;5052769;28;20041;-76
2023/07/18 03:31:16;;;;;;;13.90;5.68;;;;;;;;;;5052421;28;20045;-76
2023/07/18 03:33:42;;;;;;;14.10;5.60;;;;;;;;;;5051826;28;20048;-77
2023/07/18 03:36:08;;;;;;;12.43;5.78;;;;;;;;;;5051714;28;20049;-77
2023/07/18 03:38:34;;;;;;;14.10;5.85;;;;;;;;;;5052436;28;20041;-76
2023/07/18 03:41:00;;;;;;;13.43;5.53;;;;;;;;;;5051871;28;20055;-77
2023/07/18 03:43:26;;;;;;;17.65;6.18;;;;;;;;;;5052208;28;20487;-76
2023/07/18 03:45:52;;;;;;;11.98;5.38;;;;;;;;;;5051429;28;20041;-78
2023/07/18 03:48:18;;;;;;;13.85;5.53;;;;;;;;;;5052131;28;20174;-76
2023/07/18 03:50:45;;;;;;;15.48;6.07;;;;;;;;;;5052335;28;20059;-77
2023/07/18 03:53:11;;;;;;;15.55;5.85;;;;;;;;;;5035738;28;20049;-76
2023/07/18 03:55:37;;;;;;;15.02;5.80;;;;;;;;;;5055157;28;20041;-76
2023/07/18 03:58:04;;;;;;;14.60;5.85;;;;;;;;;;5056672;28;20045;-76
2023/07/18 04:00:30;;;;;;;13.20;5.47;;;;;;;;;;5056645;28;20103;-76
2023/07/18 04:02:57;;;;;;;12.73;5.18;;;;;;;;;;5055471;28;20080;-76
2023/07/18 04:05:24;;;;;;;15.57;5.53;;;;;;;;;;5056494;28;20044;-76
2023/07/18 04:07:51;;;;;;;11.88;5.63;;;;;;;;;;5056381;28;20049;-76
2023/07/18 04:10:17;;;;;;;13.18;6.30;;;;;;;;;;5037059;28;20049;-77
2023/07/18 04:12:44;;;;;;;17.45;5.72;;;;;;;;;;5056376;28;20052;-76
2023/07/18 04:15:10;;;;;;;13.70;5.68;;;;;;;;;;5056338;28;20095;-76
2023/07/18 04:17:38;;;;;;;15.07;5.30;;;;;;;;;;5056078;28;20056;-77
2023/07/18 04:20:05;;;;;;;15.85;6.13;;;;;;;;;;5057288;28;20052;-77
2023/07/18 04:22:31;;;;;;;15.25;5.18;;;;;;;;;;5055549;28;20037;-77
2023/07/18 04:24:57;;;;;;;13.20;5.15;;;;;;;;;;5055385;28;20099;-77
2023/07/18 04:27:26;;;;;;;14.52;5.28;;;;;;;;;;5056598;28;20052;-77
2023/07/18 04:29:53;;;;;;;15.52;5.50;;;;;;;;;;5056167;28;20045;-77
2023/07/18 04:32:19;;;;;;;11.65;5.22;;;;;;;;;;5055894;28;20067;-77
2023/07/18 04:34:48;;;;;;;14.65;5.07;;;;;;;;;;5038161;28;20121;-77
2023/07/18 04:37:14;;;;;;;16.45;5.20;;;;;;;;;;5055490;28;20053;-78
2023/07/18 04:39:40;;;;;;;13.27;4.85;;;;;;;;;;5055422;28;20048;-77
2023/07/18 04:42:06;;;;;;;12.52;5.05;;;;;;;;;;5037632;28;20059;-77
2023/07/18 04:44:33;;;;;;;16.30;5.30;;;;;;;;;;5055648;28;20495;-77
2023/07/18 04:46:59;;;;;;;14.93;5.20;;;;;;;;;;5046763;28;20041;-77
2023/07/18 04:49:25;;;;;;;14.77;4.90;;;;;;;;;;5048730;28;20048;-77
2023/07/18 04:51:52;;;;;;;14.70;4.72;;;;;;;;;;5055346;28;20037;-76
2023/07/18 04:54:19;;;;;;;14.65;5.03;;;;;;;;;;5055806;28;20049;-76
2023/07/18 04:56:45;;;;;;;12.82;4.70;;;;;;;;;;5055771;28;20056;-76
2023/07/18 04:59:11;;;;;;;16.08;5.20;;;;;;;;;;5055696;28;20077;-76
2023/07/18 05:01:38;;;;;;;12.88;4.43;;;;;;;;;;5055682;28;20057;-77
2023/07/18 05:04:04;;;;;;;11.73;4.68;;;;;;;;;;5053018;28;20040;-80
2023/07/18 05:06:30;;;;;;;12.50;4.82;;;;;;;;;;5055305;28;20045;-77
2023/07/18 05:08:56;;;;;;;12.95;4.15;;;;;;;;;;5037884;28;20049;-77
2023/07/18 05:11:22;;;;;;;15.07;4.38;;;;;;;;;;5055337;28;20119;-77
2023/07/18 05:13:48;;;;;;;11.88;4.00;;;;;;;;;;5055382;28;20049;-77
2023/07/18 05:16:15;;;;;;;11.45;4.70;;;;;;;;;;5052284;28;20075;-77
2023/07/18 05:18:41;;;;;;;12.45;4.10;;;;;;;;;;5054624;28;20060;-77
2023/07/18 05:21:07;;;;;;;15.88;4.82;;;;;;;;;;5054815;28;20615;-78
2023/07/18 05:23:33;;;;;;;14.25;4.25;;;;;;;;;;5055298;28;20085;-77
2023/07/18 05:25:59;;;;;;;12.55;4.68;;;;;;;;;;5055252;28;20075;-77
2023/07/18 05:28:25;;;;;;;11.18;4.53;;;;;;;;;;5053182;28;20045;-77
2023/07/18 05:30:52;;;;;;;11.15;4.65;;;;;;;;;;5055206;28;20052;-77
2023/07/18 05:33:18;;;;;;;12.20;4.57;;;;;;;;;;5054936;28;20040;-78
2023/07/18 05:35:44;;;;;;;11.25;3.78;;;;;;;;;;5055239;28;20491;-78
2023/07/18 05:38:10;;;;;;;11.98;4.20;;;;;;;;;;5037384;28;20403;-77
2023/07/18 05:40:36;;;;;;;12.05;4.10;;;;;;;;;;5054779;28;20076;-77
2023/07/18 05:43:02;;;;;;;12.35;4.07;;;;;;;;;;5054356;28;20430;-78
2023/07/18 05:45:28;;;;;;;10.15;3.42;;;;;;;;;;5054593;28;20119;-78
2023/07/18 05:47:54;;;;;;;15.05;4.20;;;;;;;;;;5053456;28;20094;-77
2023/07/18 05:50:20;;;;;;;11.40;3.97;;;;;;;;;;5054443;28;20039;-77
2023/07/18 05:52:48;;;;;;;14.57;3.75;;;;;;;;;;5054705;28;20384;-77
2023/07/18 05:55:14;;;;;;;10.52;3.70;;;;;;;;;;5054731;28;20088;-77
2023/07/18 05:57:40;;;;;;;14.35;3.35;;;;;;;;;;5054588;28;20041;-78
2023/07/18 06:00:07;;;;;;;10.98;3.78;;;;;;;;;;5054962;28;20053;-78
2023/07/18 06:02:34;;;;;;;11.45;3.30;;;;;;;;;;5054775;28;20044;-78
2023/07/18 06:05:00;;;;;;;13.07;3.33;;;;;;;;;;5046792;28;20125;-78
2023/07/18 06:07:26;;;;;;;9.88;3.08;;;;;;;;;;5034489;28;20088;-78
2023/07/18 06:09:52;;;;;;;12.77;3.30;;;;;;;;;;5040221;28;20403;-78
2023/07/18 06:12:19;;;;;;;11.38;3.00;;;;;;;;;;5054223;28;20040;-77
2023/07/18 06:14:45;;;;;;;12.32;3.10;;;;;;;;;;5053680;28;20048;-79
2023/07/18 06:17:11;;;;;;;10.77;3.22;;;;;;;;;;5054154;28;20041;-78
2023/07/18 06:19:37;;;;;;;12.48;3.40;;;;;;;;;;5035986;28;20049;-78
2023/07/18 06:22:03;;;;;;;7.75;2.83;;;;;;;;;;5035492;28;20119;-79
2023/07/18 06:24:29;;;;;;;10.85;2.58;;;;;;;;;;5035288;28;20057;-78
2023/07/18 06:26:56;;;;;;;11.70;3.13;;;;;;;;;;5045028;28;20053;-79
2023/07/18 06:29:22;;;;;;;8.38;2.28;;;;;;;;;;5037939;28;20148;-78
2023/07/18 06:31:49;;;;;;;12.57;3.20;;;;;;;;;;5034999;28;20160;-78
2023/07/18 06:34:18;;;;;;;12.43;2.97;;;;;;;;;;5054455;28;20101;-79
2023/07/18 06:36:45;;;;;;;12.52;3.22;;;;;;;;;;5055055;28;20049;-77
2023/07/18 06:39:11;;;;;;;12.35;3.05;;;;;;;;;;5054873;28;20045;-77
2023/07/18 06:41:37;;;;;;;14.18;3.00;;;;;;;;;;5053500;28;20071;-78
2023/07/18 06:44:08;;;;;;;9.52;2.60;;;;;;;;;;5036647;28;20065;-78
2023/07/18 06:46:35;;;;;;;12.65;2.90;;;;;;;;;;5019241;28;20155;-77
2023/07/18 06:49:01;;;;;;;10.95;2.72;;;;;;;;;;5035136;28;20049;-79
2023/07/18 06:51:27;;;;;;;10.10;2.63;;;;;;;;;;5040103;28;20517;-77
2023/07/18 06:53:53;;;;;;;11.90;2.80;;;;;;;;;;5055200;28;20498;-77
2023/07/18 06:56:19;;;;;;;9.15;2.55;;;;;;;;;;5055236;28;20084;-78
2023/07/18 06:58:45;;;;;;;10.60;3.15;;;;;;;;;;5055099;28;20041;-77
2023/07/18 07:01:11;;;;;;;11.35;2.60;;;;;;;;;;5055231;28;20376;-78
2023/07/18 07:03:38;;;;;;;12.52;2.70;;;;;;;;;;5054011;28;20045;-77
2023/07/18 07:06:10;;;;;;;11.45;2.53;;;;;;;;;;5055483;28;20067;-78
2023/07/18 07:08:36;;;;;;;9.32;2.60;;;;;;;;;;5055140;28;20052;-76
2023/07/18 07:11:06;;;;;;;11.35;2.53;;;;;;;;;;5055306;28;20051;-76
2023/07/18 07:13:32;;;;;;;14.35;2.67;;;;;;;;;;5038348;28;20514;-77
2023/07/18 07:15:58;;;;;;;10.25;2.75;;;;;;;;;;5041519;28;20561;-78
2023/07/18 07:18:24;;;;;;;11.85;3.10;;;;;;;;;;5055104;28;20064;-77
2023/07/18 07:20:51;;;;;;;10.60;3.20;;;;;;;;;;5055171;28;20072;-77
2023/07/18 07:23:17;;;;;;;10.10;2.90;;;;;;;;;;5054497;28;20048;-77
2023/07/18 07:25:43;;;;;;;9.52;2.33;;;;;;;;;;5054710;28;20048;-78
2023/07/18 07:28:09;;;;;;;15.18;3.10;;;;;;;;;;5053364;28;20044;-78
2023/07/18 07:30:35;;;;;;;11.35;2.80;;;;;;;;;;5055389;28;20443;-76
2023/07/18 07:33:03;;;;;;;11.10;2.85;;;;;;;;;;5055420;28;20055;-78
2023/07/18 07:35:29;;;;;;;28.25;3.35;;;;;;;;;;5056108;28;20055;-76
2023/07/18 07:37:55;;;;;;;13.07;3.40;;;;;;;;;;5037467;28;20053;-77
2023/07/18 07:40:22;;;;;;;11.23;2.88;;;;;;;;;;5019226;28;20061;-78
2023/07/18 07:42:48;;;;;;;13.32;3.00;;;;;;;;;;5054864;28;20550;-77
2023/07/18 07:45:15;;;;;;;12.90;3.08;;;;;;;;;;5052732;28;20068;-78
2023/07/18 07:47:41;;;;;;;12.55;2.88;;;;;;;;;;5035185;28;20044;-78
2023/07/18 07:50:08;;;;;;;12.55;3.10;;;;;;;;;;5053805;28;20044;-77
2023/07/18 07:52:35;;;;;;;12.52;3.47;;;;;;;;;;5037748;28;20049;-77
2023/07/18 07:55:01;;;;;;;12.15;2.95;;;;;;;;;;5054916;28;20083;-78
2023/07/18 07:57:27;;;;;;;11.15;3.42;;;;;;;;;;5055114;28;20072;-77
2023/07/18 07:59:53;;;;;;;14.60;3.45;;;;;;;;;;5053851;28;20483;-77
2023/07/18 08:02:19;;;;;;;12.65;3.00;;;;;;;;;;5054749;28;20049;-77
2023/07/18 08:04:46;;;;;;;15.00;3.83;;;;;;;;;;5036939;28;20041;-78
2023/07/18 08:07:12;;;;;;;12.65;3.75;;;;;;;;;;5054494;28;20037;-78
2023/07/18 08:09:39;;;;;;;15.25;3.92;;;;;;;;;;5053204;28;20072;-77
2023/07/18 08:12:05;;;;;;;13.13;4.00;;;;;;;;;;5054535;28;20099;-78
2023/07/18 08:14:32;;;;;;;17.50;3.90;;;;;;;;;;5055714;28;20045;-77
2023/07/18 08:16:58;;;;;;;15.77;4.35;;;;;;;;;;5035042;28;20037;-77
2023/07/18 08:19:24;;;;;;;14.57;3.85;;;;;;;;;;5054425;28;20049;-77
2023/07/18 08:21:51;;;;;;;16.38;3.60;;;;;;;;;;5053640;28;20041;-78
2023/07/18 08:24:18;;;;;;;13.30;3.50;;;;;;;;;;5054283;28;20053;-78
2023/07/18 08:26:44;;;;;;;14.82;3.70;;;;;;;;;;5053994;28;20049;-78
2023/07/18 08:29:10;;;;;;;15.32;3.25;;;;;;;;;;5053455;28;20440;-77
2023/07/18 08:31:36;;;;;;;11.50;3.28;;;;;;;;;;5034801;28;20098;-79
2023/07/18 08:34:02;;;;;;;11.20;2.92;;;;;;;;;;5036467;28;20091;-78
2023/07/18 08:36:31;;;;;;;13.00;2.60;;;;;;;;;;5053209;28;20111;-78
2023/07/18 08:38:57;;;;;;;10.50;2.75;;;;;;;;;;5055478;28;20045;-78
2023/07/18 08:41:23;;;;;;;15.13;3.13;;;;;;;;;;5057927;28;20134;-77
2023/07/18 08:43:50;;;;;;;12.07;2.92;;;;;;;;;;5057529;28;20060;-78
2023/07/18 08:46:17;;;;;;;15.10;2.92;;;;;;;;;;5057113;28;20463;-78
2023/07/18 08:48:46;;;;;;;11.20;2.53;;;;;;;;;;5058583;28;20055;-78
2023/07/18 08:51:13;;;;;;;12.02;2.55;;;;;;;;;;5058157;28;20037;-78
2023/07/18 08:53:39;;;;;;;17.17;2.70;;;;;;;;;;5057861;28;20174;-77
2023/07/18 08:56:08;;;;;;;11.95;2.33;;;;;;;;;;5057838;28;20041;-78
2023/07/18 08:58:36;;;;;;;14.60;2.75;;;;;;;;;;5039693;28;20118;-77
2023/07/18 09:01:02;;;;;;;13.38;2.67;;;;;;;;;;5055873;28;20055;-79
2023/07/18 09:03:28;;;;;;;13.65;3.03;;;;;;;;;;5056199;28;20072;-77
2023/07/18 09:05:54;;;;;;;16.08;2.80;;;;;;;;;;5057383;28;20110;-78
2023/07/18 09:08:21;;;;;;;12.65;2.45;;;;;;;;;;5056523;28;20073;-78
2023/07/18 09:10:47;;;;;;;12.50;2.40;;;;;;;;;;5057261;28;20053;-77
2023/07/18 09:13:14;;;;;;;12.48;2.60;;;;;;;;;;5038855;28;20052;-77
2023/07/18 09:15:43;;;;;;;11.45;2.03;;;;;;;;;;5038263;28;20049;-77
2023/07/18 09:18:12;;;;;;;11.27;2.38;;;;;;;;;;5039834;28;20067;-77
2023/07/18 09:20:38;;;;;;;10.13;2.53;;;;;;;;;;5056994;28;20056;-77
2023/07/18 09:23:04;;;;;;;11.60;2.15;;;;;;;;;;5038673;28;20056;-78
2023/07/18 09:25:30;;;;;;;8.85;2.03;;;;;;;;;;5056847;28;20041;-78
2023/07/18 09:27:57;;;;;;;10.45;2.10;;;;;;;;;;5035914;28;20057;-77
2023/07/18 09:30:23;;;;;;;13.60;2.58;;;;;;;;;;5056050;28;20052;-77
2023/07/18 09:32:51;;;;;;;8.10;1.90;;;;;;;;;;5038613;28;20056;-77
2023/07/18 09:35:17;;;;;;;10.60;2.40;;;;;;;;;;5056367;28;20064;-77
2023/07/18 09:37:45;;;;;;;9.55;2.20;;;;;;;;;;5056199;28;20045;-77
2023/07/18 09:40:12;;;;;;;7.25;2.00;;;;;;;;;;5056455;28;20088;-77
2023/07/18 09:42:40;;;;;;;9.85;2.17;;;;;;;;;;5055694;28;20045;-78
2023/07/18 09:45:07;;;;;;;10.50;2.33;;;;;;;;;;5054290;28;20057;-79
2023/07/18 09:47:33;;;;;;;8.48;2.17;;;;;;;;;;5055567;28;20123;-78
2023/07/18 09:49:59;;;;;;;7.03;1.75;;;;;;;;;;5055286;28;20422;-77
2023/07/18 09:52:27;;;;;;;12.23;2.00;;;;;;;;;;5052969;28;20041;-77
2023/07/18 09:54:53;;;;;;;8.70;2.00;;;;;;;;;;5055732;28;20044;-77
2023/07/18 09:57:20;;;;;;;7.53;1.73;;;;;;;;;;5055519;28;20067;-78
2023/07/18 09:59:48;;;;;;;8.15;1.70;;;;;;;;;;5055747;28;20506;-77
2023/07/18 10:02:15;;;;;;;7.20;1.50;;;;;;;;;;5055969;28;20055;-76
2023/07/18 10:04:43;;;;;;;7.85;1.67;;;;;;;;;;5056061;28;20045;-77
2023/07/18 10:07:09;;;;;;;6.35;1.50;;;;;;;;;;5054949;28;20538;-76
2023/07/18 10:09:35;;;;;;;8.40;1.85;;;;;;;;;;5037699;28;20049;-77
2023/07/18 10:12:01;;;;;;;7.57;1.35;;;;;;;;;;5037819;28;20407;-77
2023/07/18 10:14:28;;;;;;;9.10;1.80;;;;;;;;;;5055910;28;20037;-78
2023/07/18 10:16:55;;;;;;;5.75;1.33;;;;;;;;;;5055479;28;20166;-77
2023/07/18 10:19:24;;;;;;;7.68;1.42;;;;;;;;;;5054736;28;20049;-78
2023/07/18 10:21:54;;;;;;;8.55;1.35;;;;;;;;;;5054033;28;20356;-77
2023/07/18 10:24:20;;;;;;;4.90;1.10;;;;;;;;;;5052863;28;20173;-78
2023/07/18 10:26:51;;;;;;;7.55;1.70;;;;;;;;;;5034920;28;20101;-79
2023/07/18 10:29:17;;;;;;;7.13;1.73;;;;;;;;;;5039001;28;20075;-77
2023/07/18 10:31:43;;;;;;;6.57;1.38;;;;;;;;;;5055821;28;20049;-78
2023/07/18 10:34:14;;;;;;;6.07;1.48;;;;;;;;;;5056479;28;20059;-76
2023/07/18 10:36:41;;;;;;;6.60;1.23;;;;;;;;;;5038668;28;20047;-77
2023/07/18 10:39:12;;;;;;;4.60;1.27;;;;;;;;;;5055991;28;20051;-77
2023/07/18 10:41:44;;;;;;;7.13;1.38;;;;;;;;;;5061165;28;20083;-78
2023/07/18 10:44:14;;;;;;;5.93;1.50;;;;;;;;;;5057179;28;20062;-78
2023/07/18 10:46:40;;;;;;;6.15;1.30;;;;;;;;;;5057464;28;20056;-78
2023/07/18 10:49:07;;;;;;;6.68;1.40;;;;;;;;;;5056883;28;20061;-78
2023/07/18 10:51:34;;;;;;;5.82;1.27;;;;;;;;;;5057290;28;20380;-79
2023/07/18 10:54:00;;;;;;;5.63;1.40;;;;;;;;;;5056595;28;20033;-79
2023/07/18 10:56:27;;;;;;;5.05;1.23;;;;;;;;;;5057786;28;20071;-77
2023/07/18 10:58:53;;;;;;;5.32;1.10;;;;;;;;;;5058975;28;20124;-78
2023/07/18 11:01:20;;;;;;;6.03;1.20;;;;;;;;;;5058322;28;20499;-79
2023/07/18 11:03:46;;;;;;;4.38;1.20;;;;;;;;;;5051382;28;20091;-78
2023/07/18 11:06:14;;;;;;;4.65;1.20;;;;;;;;;;5058618;28;20045;-78
2023/07/18 11:08:45;;;;;;;5.35;1.50;;;;;;;;;;5059046;28;20548;-78
2023/07/18 11:11:11;;;;;;;7.07;1.25;;;;;;;;;;5059512;28;20045;-78
2023/07/18 11:13:40;;;;;;;4.15;0.98;;;;;;;;;;5059491;28;20041;-78
2023/07/18 11:16:07;;;;;;;10.77;1.20;;;;;;;;;;5035943;28;20143;-78
2023/07/18 11:18:35;;;;;;;4.38;0.93;;;;;;;;;;5022587;28;20048;-78
2023/07/18 11:21:02;;;;;;;4.45;0.90;;;;;;;;;;5040865;28;20077;-78
2023/07/18 11:23:28;;;;;;;5.22;1.20;;;;;;;;;;5039942;28;20448;-78
2023/07/18 11:25:54;;;;;;;3.47;0.98;;;;;;;;;;5040728;28;20042;-78
2023/07/18 11:28:21;;;;;;;4.60;1.00;;;;;;;;;;5040897;28;20449;-79
2023/07/18 11:30:47;;;;;;;4.20;0.80;;;;;;;;;;5050011;28;20085;-78
2023/07/18 11:33:14;;;;;;;3.28;0.90;;;;;;;;;;5059304;28;20052;-78
2023/07/18 11:35:47;;;;;;;3.90;1.00;;;;;;;;;;5040347;28;20056;-79
2023/07/18 11:38:17;;;;;;;5.03;0.80;;;;;;;;;;5060898;28;20051;-79
2023/07/18 11:40:43;;;;;;;5.22;0.88;;;;;;;;;;5058795;28;20060;-79
2023/07/18 11:43:19;;;;;;;3.80;0.88;;;;;;;;;;5061833;28;20045;-79
2023/07/18 11:45:46;;;;;;;3.05;0.77;;;;;;;;;;5027133;28;20056;-78
2023/07/18 11:48:16;;;;;;;6.20;0.90;;;;;;;;;;5060526;28;20507;-79
2023/07/18 11:50:44;;;;;;;5.75;0.73;;;;;;;;;;5060844;28;20053;-79
2023/07/18 11:53:11;;;;;;;3.75;0.82;;;;;;;;;;5061517;28;20055;-79
2023/07/18 11:55:37;;;;;;;3.72;0.90;;;;;;;;;;5061940;28;20064;-78
2023/07/18 11:58:09;;;;;;;5.10;0.90;;;;;;;;;;5062290;28;20400;-79
2023/07/18 12:00:36;;;;;;;3.80;0.85;;;;;;;;;;5061867;28;20057;-79
2023/07/18 12:03:02;;;;;;;4.30;1.10;;;;;;;;;;5061617;28;20049;-79
2023/07/18 12:05:28;;;;;;;3.67;0.90;;;;;;;;;;5063457;28;20077;-79
2023/07/18 12:07:54;;;;;;;5.47;0.90;;;;;;;;;;5046567;28;20049;-80
2023/07/18 12:10:21;;;;;;;5.07;1.00;;;;;;;;;;5062294;28;20048;-80
2023/07/18 12:12:47;;;;;;;4.15;0.90;;;;;;;;;;5062034;28;20086;-79
2023/07/18 12:15:13;;;;;;;3.50;0.90;;;;;;;;;;5064559;28;20212;-79
2023/07/18 12:17:39;;;;;;;3.13;0.85;;;;;;;;;;5045983;28;20095;-79
2023/07/18 12:20:06;;;;;;;4.38;0.82;;;;;;;;;;5046018;28;20037;-78
2023/07/18 12:22:33;;;;;;;4.43;0.73;;;;;;;;;;5045329;28;20105;-79
2023/07/18 12:25:01;;;;;;;4.13;1.00;;;;;;;;;;5045388;28;20054;-78
2023/07/18 12:27:27;;;;;;;3.47;0.75;;;;;;;;;;5047442;28;20041;-78
2023/07/18 12:29:53;;;;;;;4.13;0.75;;;;;;;;;;5061776;28;20105;-78
2023/07/18 12:32:19;;;;;;;2.47;0.80;;;;;;;;;;5065107;28;20045;-79
2023/07/18 12:34:46;;;;;;;3.92;0.93;;;;;;;;;;5065142;28;20045;-79
2023/07/18 12:37:12;;;;;;;7.07;1.08;;;;;;;;;;5065419;28;20068;-78
2023/07/18 12:39:39;;;;;;;4.28;0.98;;;;;;;;;;5064803;28;20053;-78
2023/07/18 12:42:05;;;;;;;5.07;1.10;;;;;;;;;;5064311;28;20109;-79
2023/07/18 12:44:38;;;;;;;4.22;1.00;;;;;;;;;;5047139;28;20681;-78
2023/07/18 12:47:04;;;;;;;5.22;0.90;;;;;;;;;;5065849;28;20079;-79
2023/07/18 12:49:30;;;;;;;4.57;1.17;;;;;;;;;;5047308;28;20505;-80
2023/07/18 12:51:56;;;;;;;3.60;0.93;;;;;;;;;;5048385;28;20067;-78
2023/07/18 12:54:23;;;;;;;4.35;0.95;;;;;;;;;;5063808;28;20057;-79
2023/07/18 12:56:49;;;;;;;5.07;1.30;;;;;;;;;;5065764;28;20509;-78
2023/07/18 12:59:15;;;;;;;3.17;0.80;;;;;;;;;;5046341;28;20090;-78
2023/07/18 13:01:41;;;;;;;7.18;1.40;;;;;;;;;;5031845;28;20045;-80
2023/07/18 13:04:07;;;;;;;4.05;1.10;;;;;;;;;;5062974;28;20045;-79
2023/07/18 13:06:33;;;;;;;3.70;0.85;;;;;;;;;;5064999;28;20120;-79
2023/07/18 13:09:00;;;;;;;5.75;1.00;;;;;;;;;;5066154;28;20128;-80
2023/07/18 13:11:26;;;;;;;5.40;1.15;;;;;;;;;;5047036;28;20067;-79
2023/07/18 13:13:52;;;;;;;4.47;1.13;;;;;;;;;;5064658;28;20540;-79
2023/07/18 13:16:18;;;;;;;4.72;0.85;;;;;;;;;;5066872;28;20108;-79
2023/07/18 13:18:45;;;;;;;5.65;0.90;;;;;;;;;;5067160;28;20499;-78
2023/07/18 13:21:11;;;;;;;2.85;0.70;;;;;;;;;;5067584;28;20037;-79
2023/07/18 13:23:37;;;;;;;4.18;0.80;;;;;;;;;;5064856;28;20495;-78
2023/07/18 13:26:04;;;;;;;5.18;0.82;;;;;;;;;;5061533;28;20087;-78
2023/07/18 13:28:30;;;;;;;3.03;0.73;;;;;;;;;;5063098;28;20060;-78
2023/07/18 13:30:57;;;;;;;5.40;1.25;;;;;;;;;;5066479;28;20238;-80
2023/07/18 13:33:23;;;;;;;4.90;0.90;;;;;;;;;;5065566;28;20041;-79
2023/07/18 13:35:49;;;;;;;3.13;0.70;;;;;;;;;;5066654;28;20091;-79
2023/07/18 13:38:16;;;;;;;3.70;0.80;;;;;;;;;;5066086;28;20064;-80
2023/07/18 13:40:42;;;;;;;4.47;0.90;;;;;;;;;;5065409;28;20515;-79
2023/07/18 13:43:08;;;;;;;3.13;0.80;;;;;;;;;;5065509;28;20497;-80
2023/07/18 13:45:34;;;;;;;3.05;0.70;;;;;;;;;;5065633;28;20097;-79
2023/07/18 13:48:02;;;;;;;2.78;0.65;;;;;;;;;;5063961;28;20157;-78
2023/07/18 13:50:28;;;;;;;3.47;0.90;;;;;;;;;;5062311;28;20056;-79
2023/07/18 13:52:54;;;;;;;3.63;0.90;;;;;;;;;;5061886;28;20049;-79
2023/07/18 13:55:20;;;;;;;3.53;0.90;;;;;;;;;;5043343;28;20053;-78
2023/07/18 13:57:46;;;;;;;2.92;0.73;;;;;;;;;;5059237;28;20041;-78
2023/07/18 14:00:12;;;;;;;9.65;1.25;;;;;;;;;;5039690;28;20049;-79
2023/07/18 14:02:38;;;;;;;5.65;1.17;;;;;;;;;;5063710;28;20099;-79
2023/07/18 14:05:05;;;;;;;6.22;1.17;;;;;;;;;;5063104;28;20064;-78
2023/07/18 14:07:32;;;;;;;5.03;1.00;;;;;;;;;;5061400;28;20041;-80
2023/07/18 14:09:58;;;;;;;8.02;1.50;;;;;;;;;;5062099;28;20101;-79
2023/07/18 14:12:24;;;;;;;8.15;1.45;;;;;;;;;;5041953;28;20059;-79
2023/07/18 14:14:51;;;;;;;5.32;1.00;;;;;;;;;;5057996;28;20402;-78
2023/07/18 14:17:17;;;;;;;8.68;1.58;;;;;;;;;;5057111;28;20055;-79
2023/07/18 14:19:43;;;;;;;10.82;1.83;;;;;;;;;;5039156;28;20120;-79
2023/07/18 14:22:11;;;;;;;5.88;1.60;;;;;;;;;;5056551;28;20102;-79
2023/07/18 14:24:37;;;;;;;6.07;1.55;;;;;;;;;;5038678;28;20053;-79
2023/07/18 14:27:03;;;;;;;7.50;1.83;;;;;;;;;;5039171;28;20041;-79
2023/07/18 14:29:31;;;;;;;5.85;1.55;;;;;;;;;;5056398;28;20047;-79
2023/07/18 14:31:57;;;;;;;7.68;1.90;;;;;;;;;;5057044;28;20120;-79